sensor_id;sensor_type;location;lat;lon;timestamp;pressure;altitude;pressure_sealevel;temperature;humidity
74329;BME280;62749;51.982;5.916;2022-12-07T00:00:08;101628.69;;;5.06;85.68
74329;BME280;62749;51.982;5.916;2022-12-07T00:02:38;101621.69;;;5.12;85.67
74329;BME280;62749;51.982;5.916;2022-12-07T00:05:07;101617.31;;;5.14;85.73
74329;BME280;62749;51.982;5.916;2022-12-07T00:07:37;101619.13;;;5.01;85.30
74329;BME280;62749;51.982;5.916;2022-12-07T00:10:07;101618.31;;;4.96;85.16
74329;BME280;62749;51.982;5.916;2022-12-07T00:12:39;101621.78;;;4.96;85.64
74329;BME280;62749;51.982;5.916;2022-12-07T00:15:09;101622.66;;;4.92;85.53
74329;BME280;62749;51.982;5.916;2022-12-07T00:17:38;101629.66;;;4.93;85.42
74329;BME280;62749;51.982;5.916;2022-12-07T00:20:09;101620.06;;;4.90;85.67
74329;BME280;62749;51.982;5.916;2022-12-07T00:22:38;101614.00;;;4.82;85.79
74329;BME280;62749;51.982;5.916;2022-12-07T00:25:08;101627.06;;;4.88;85.92
74329;BME280;62749;51.982;5.916;2022-12-07T00:27:40;101623.63;;;4.77;85.57
74329;BME280;62749;51.982;5.916;2022-12-07T00:30:09;101626.25;;;4.77;85.60
74329;BME280;62749;51.982;5.916;2022-12-07T00:32:39;101627.13;;;4.74;85.79
74329;BME280;62749;51.982;5.916;2022-12-07T00:35:08;101620.16;;;4.76;85.46
74329;BME280;62749;51.982;5.916;2022-12-07T00:37:37;101615.78;;;4.69;85.71
74329;BME280;62749;51.982;5.916;2022-12-07T00:40:08;101601.81;;;4.72;85.87
74329;BME280;62749;51.982;5.916;2022-12-07T00:42:40;101607.91;;;4.77;85.47
74329;BME280;62749;51.982;5.916;2022-12-07T00:45:24;101604.44;;;4.76;85.10
74329;BME280;62749;51.982;5.916;2022-12-07T00:47:53;101602.63;;;4.85;84.84
74329;BME280;62749;51.982;5.916;2022-12-07T00:50:23;101603.56;;;4.71;84.85
74329;BME280;62749;51.982;5.916;2022-12-07T00:52:52;101600.97;;;4.70;85.38
74329;BME280;62749;51.982;5.916;2022-12-07T00:55:21;101592.19;;;4.77;85.49
74329;BME280;62749;51.982;5.916;2022-12-07T00:57:53;101590.50;;;4.71;84.73
74329;BME280;62749;51.982;5.916;2022-12-07T01:00:23;101596.59;;;4.73;84.72
74329;BME280;62749;51.982;5.916;2022-12-07T01:02:53;101598.34;;;4.74;84.79
74329;BME280;62749;51.982;5.916;2022-12-07T01:05:22;101587.84;;;4.73;85.03
74329;BME280;62749;51.982;5.916;2022-12-07T01:07:52;101591.38;;;4.67;85.02
74329;BME280;62749;51.982;5.916;2022-12-07T01:10:21;101594.88;;;4.71;85.11
74329;BME280;62749;51.982;5.916;2022-12-07T01:12:54;101592.25;;;4.68;84.84
74329;BME280;62749;51.982;5.916;2022-12-07T01:15:23;101594.84;;;4.72;84.76
74329;BME280;62749;51.982;5.916;2022-12-07T01:17:53;101594.00;;;4.63;84.49
74329;BME280;62749;51.982;5.916;2022-12-07T01:20:23;101598.38;;;4.60;84.57
74329;BME280;62749;51.982;5.916;2022-12-07T01:22:52;101603.63;;;4.60;84.64
74329;BME280;62749;51.982;5.916;2022-12-07T01:25:21;101598.41;;;4.59;84.58
74329;BME280;62749;51.982;5.916;2022-12-07T01:27:53;101596.69;;;4.52;84.65
74329;BME280;62749;51.982;5.916;2022-12-07T01:30:23;101607.97;;;4.65;84.83
74329;BME280;62749;51.982;5.916;2022-12-07T01:32:52;101607.97;;;4.61;84.51
74329;BME280;62749;51.982;5.916;2022-12-07T01:35:21;101602.78;;;4.49;84.78
74329;BME280;62749;51.982;5.916;2022-12-07T01:37:51;101607.16;;;4.52;84.61
74329;BME280;62749;51.982;5.916;2022-12-07T01:40:20;101606.31;;;4.45;84.82
74329;BME280;62749;51.982;5.916;2022-12-07T01:42:49;101602.81;;;4.43;84.95
74329;BME280;62749;51.982;5.916;2022-12-07T01:45:40;101600.19;;;4.41;85.14
74329;BME280;62749;51.982;5.916;2022-12-07T01:48:12;101594.06;;;4.50;84.63
74329;BME280;62749;51.982;5.916;2022-12-07T01:50:46;101595.84;;;4.42;84.00
74329;BME280;62749;51.982;5.916;2022-12-07T01:53:19;101590.66;;;4.26;84.51
74329;BME280;62749;51.982;5.916;2022-12-07T01:55:52;101599.34;;;4.35;84.77
74329;BME280;62749;51.982;5.916;2022-12-07T01:58:22;101590.66;;;4.34;84.56
74329;BME280;62749;51.982;5.916;2022-12-07T02:00:55;101584.56;;;4.27;84.62
74329;BME280;62749;51.982;5.916;2022-12-07T02:03:31;101594.16;;;4.24;84.38
74329;BME280;62749;51.982;5.916;2022-12-07T02:06:02;101587.19;;;4.20;84.69
74329;BME280;62749;51.982;5.916;2022-12-07T02:08:32;101588.94;;;4.24;84.83
74329;BME280;62749;51.982;5.916;2022-12-07T02:11:04;101587.19;;;4.21;84.78
74329;BME280;62749;51.982;5.916;2022-12-07T02:13:43;101587.22;;;4.18;84.99
74329;BME280;62749;51.982;5.916;2022-12-07T02:16:28;101589.81;;;4.09;85.41
74329;BME280;62749;51.982;5.916;2022-12-07T02:19:29;101590.69;;;4.14;85.32
74329;BME280;62749;51.982;5.916;2022-12-07T02:22:26;101585.47;;;4.03;85.01
74329;BME280;62749;51.982;5.916;2022-12-07T02:25:09;101589.84;;;4.06;85.68
74329;BME280;62749;51.982;5.916;2022-12-07T02:27:46;101586.34;;;4.11;85.48
74329;BME280;62749;51.982;5.916;2022-12-07T02:30:21;101588.09;;;4.17;85.50
74329;BME280;62749;51.982;5.916;2022-12-07T02:32:58;101595.03;;;4.23;85.25
74329;BME280;62749;51.982;5.916;2022-12-07T02:35:35;101584.56;;;4.23;84.52
74329;BME280;62749;51.982;5.916;2022-12-07T02:38:37;101597.66;;;4.15;84.90
74329;BME280;62749;51.982;5.916;2022-12-07T02:41:13;101590.66;;;4.20;84.73
74329;BME280;62749;51.982;5.916;2022-12-07T02:43:50;101591.56;;;4.14;84.70
74329;BME280;62749;51.982;5.916;2022-12-07T02:46:28;101588.06;;;4.19;84.74
74329;BME280;62749;51.982;5.916;2022-12-07T02:48:59;101586.34;;;4.11;84.28
74329;BME280;62749;51.982;5.916;2022-12-07T02:51:30;101590.72;;;4.12;84.49
74329;BME280;62749;51.982;5.916;2022-12-07T02:54:00;101579.38;;;4.12;84.10
74329;BME280;62749;51.982;5.916;2022-12-07T02:56:39;101586.34;;;4.11;84.05
74329;BME280;62749;51.982;5.916;2022-12-07T02:59:22;101581.09;;;4.13;83.92
74329;BME280;62749;51.982;5.916;2022-12-07T03:02:17;101589.81;;;4.13;83.63
74329;BME280;62749;51.982;5.916;2022-12-07T03:05:03;101582.84;;;4.08;84.00
74329;BME280;62749;51.982;5.916;2022-12-07T03:07:42;101590.69;;;4.11;84.03
74329;BME280;62749;51.982;5.916;2022-12-07T03:10:27;101592.47;;;4.06;84.02
74329;BME280;62749;51.982;5.916;2022-12-07T03:13:03;101588.94;;;4.16;83.95
74329;BME280;62749;51.982;5.916;2022-12-07T03:15:39;101581.13;;;4.11;83.82
74329;BME280;62749;51.982;5.916;2022-12-07T03:18:19;101602.03;;;4.11;84.19
74329;BME280;62749;51.982;5.916;2022-12-07T03:20:55;101592.44;;;4.17;83.94
74329;BME280;62749;51.982;5.916;2022-12-07T03:23:28;101592.44;;;4.13;84.24
74329;BME280;62749;51.982;5.916;2022-12-07T03:26:01;101589.81;;;4.13;83.91
74329;BME280;62749;51.982;5.916;2022-12-07T03:28:35;101595.06;;;4.04;84.41
74329;BME280;62749;51.982;5.916;2022-12-07T03:31:14;101580.25;;;4.14;84.09
74329;BME280;62749;51.982;5.916;2022-12-07T03:33:53;101584.56;;;4.21;83.75
74329;BME280;62749;51.982;5.916;2022-12-07T03:36:32;101581.06;;;4.30;83.44
74329;BME280;62749;51.982;5.916;2022-12-07T03:39:15;101579.31;;;4.24;83.35
74329;BME280;62749;51.982;5.916;2022-12-07T03:41:46;101573.22;;;4.32;83.36
74329;BME280;62749;51.982;5.916;2022-12-07T03:44:16;101569.69;;;4.39;82.98
74329;BME280;62749;51.982;5.916;2022-12-07T03:46:56;101570.53;;;4.39;83.14
74329;BME280;62749;51.982;5.916;2022-12-07T03:49:41;101567.94;;;4.41;82.94
74329;BME280;62749;51.982;5.916;2022-12-07T03:52:19;101567.06;;;4.39;82.65
74329;BME280;62749;51.982;5.916;2022-12-07T03:54:58;101567.06;;;4.36;82.63
74329;BME280;62749;51.982;5.916;2022-12-07T03:57:31;101565.34;;;4.30;83.04
74329;BME280;62749;51.982;5.916;2022-12-07T04:00:05;101573.19;;;4.33;83.16
74329;BME280;62749;51.982;5.916;2022-12-07T04:02:36;101571.50;;;4.23;83.06
74329;BME280;62749;51.982;5.916;2022-12-07T04:05:10;101568.88;;;4.26;83.39
74329;BME280;62749;51.982;5.916;2022-12-07T04:07:41;101569.69;;;4.33;83.66
74329;BME280;62749;51.982;5.916;2022-12-07T04:10:11;101565.38;;;4.28;83.04
74329;BME280;62749;51.982;5.916;2022-12-07T04:12:40;101566.25;;;4.27;83.18
74329;BME280;62749;51.982;5.916;2022-12-07T04:15:10;101563.63;;;4.30;83.80
74329;BME280;62749;51.982;5.916;2022-12-07T04:17:39;101555.75;;;4.34;83.08
74329;BME280;62749;51.982;5.916;2022-12-07T04:20:12;101549.66;;;4.27;83.21
74329;BME280;62749;51.982;5.916;2022-12-07T04:22:42;101556.59;;;4.45;82.96
74329;BME280;62749;51.982;5.916;2022-12-07T04:25:11;101565.34;;;4.38;82.90
74329;BME280;62749;51.982;5.916;2022-12-07T04:27:40;101560.94;;;4.48;82.66
74329;BME280;62749;51.982;5.916;2022-12-07T04:30:10;101571.38;;;4.55;82.41
74329;BME280;62749;51.982;5.916;2022-12-07T04:32:40;101555.72;;;4.44;82.63
74329;BME280;62749;51.982;5.916;2022-12-07T04:35:11;101559.22;;;4.45;82.85
74329;BME280;62749;51.982;5.916;2022-12-07T04:37:42;101569.69;;;4.45;82.87
74329;BME280;62749;51.982;5.916;2022-12-07T04:40:12;101563.59;;;4.40;83.01
74329;BME280;62749;51.982;5.916;2022-12-07T04:42:41;101567.94;;;4.38;83.20
74329;BME280;62749;51.982;5.916;2022-12-07T04:45:10;101569.72;;;4.28;83.48
74329;BME280;62749;51.982;5.916;2022-12-07T04:47:40;101564.47;;;4.31;83.60
74329;BME280;62749;51.982;5.916;2022-12-07T04:50:12;101565.34;;;4.27;83.64
74329;BME280;62749;51.982;5.916;2022-12-07T04:52:41;101557.53;;;4.32;83.53
74329;BME280;62749;51.982;5.916;2022-12-07T04:55:10;101566.22;;;4.29;83.89
74329;BME280;62749;51.982;5.916;2022-12-07T04:57:40;101557.50;;;4.27;83.68
74329;BME280;62749;51.982;5.916;2022-12-07T05:00:10;101554.91;;;4.28;84.27
74329;BME280;62749;51.982;5.916;2022-12-07T05:02:46;101554.03;;;4.20;83.90
74329;BME280;62749;51.982;5.916;2022-12-07T05:05:18;101554.09;;;4.06;83.97
74329;BME280;62749;51.982;5.916;2022-12-07T05:07:48;101555.00;;;4.04;84.33
74329;BME280;62749;51.982;5.916;2022-12-07T05:10:17;101545.41;;;3.98;84.20
74329;BME280;62749;51.982;5.916;2022-12-07T05:12:47;101546.28;;;3.94;85.01
74329;BME280;62749;51.982;5.916;2022-12-07T05:15:16;101546.31;;;3.92;84.64
74329;BME280;62749;51.982;5.916;2022-12-07T05:17:46;101547.19;;;3.83;84.75
74329;BME280;62749;51.982;5.916;2022-12-07T05:20:18;101548.94;;;3.77;84.97
74329;BME280;62749;51.982;5.916;2022-12-07T05:23:13;101550.69;;;3.82;85.17
74329;BME280;62749;51.982;5.916;2022-12-07T05:25:43;101541.97;;;3.76;84.84
74329;BME280;62749;51.982;5.916;2022-12-07T05:28:12;101545.44;;;3.76;84.96
74329;BME280;62749;51.982;5.916;2022-12-07T05:30:42;101548.09;;;3.73;85.23
74329;BME280;62749;51.982;5.916;2022-12-07T05:33:11;101551.56;;;3.71;85.08
74329;BME280;62749;51.982;5.916;2022-12-07T05:35:43;101555.06;;;3.74;85.50
74329;BME280;62749;51.982;5.916;2022-12-07T05:38:12;101553.28;;;3.75;85.28
74329;BME280;62749;51.982;5.916;2022-12-07T05:40:42;101553.31;;;3.73;85.29
74329;BME280;62749;51.982;5.916;2022-12-07T05:43:11;101552.41;;;3.82;85.18
74329;BME280;62749;51.982;5.916;2022-12-07T05:45:40;101549.78;;;3.85;85.20
74329;BME280;62749;51.982;5.916;2022-12-07T05:48:09;101542.81;;;3.79;84.66
74329;BME280;62749;51.982;5.916;2022-12-07T05:50:39;101541.97;;;3.79;84.88
74329;BME280;62749;51.982;5.916;2022-12-07T05:53:11;101540.25;;;3.73;84.92
74329;BME280;62749;51.982;5.916;2022-12-07T05:55:40;101543.72;;;3.72;85.43
74329;BME280;62749;51.982;5.916;2022-12-07T05:58:10;101550.69;;;3.72;85.11
74329;BME280;62749;51.982;5.916;2022-12-07T06:00:59;101548.06;;;3.72;85.35
74329;BME280;62749;51.982;5.916;2022-12-07T06:03:28;101538.50;;;3.74;84.73
74329;BME280;62749;51.982;5.916;2022-12-07T06:05:58;101546.34;;;3.80;84.87
74329;BME280;62749;51.982;5.916;2022-12-07T06:08:30;101539.34;;;3.76;84.87
74329;BME280;62749;51.982;5.916;2022-12-07T06:10:59;101546.31;;;3.71;84.73
74329;BME280;62749;51.982;5.916;2022-12-07T06:13:40;101546.34;;;3.64;84.89
74329;BME280;62749;51.982;5.916;2022-12-07T06:16:10;101540.25;;;3.59;85.24
74329;BME280;62749;51.982;5.916;2022-12-07T06:18:39;101538.53;;;3.60;85.50
74329;BME280;62749;51.982;5.916;2022-12-07T06:21:09;101536.75;;;3.57;85.28
74329;BME280;62749;51.982;5.916;2022-12-07T06:23:41;101541.97;;;3.65;85.37
74329;BME280;62749;51.982;5.916;2022-12-07T06:26:10;101539.38;;;3.66;84.71
74329;BME280;62749;51.982;5.916;2022-12-07T06:28:39;101542.88;;;3.58;85.15
74329;BME280;62749;51.982;5.916;2022-12-07T06:31:10;101550.69;;;3.65;85.27
74329;BME280;62749;51.982;5.916;2022-12-07T06:33:40;101550.72;;;3.61;85.18
74329;BME280;62749;51.982;5.916;2022-12-07T06:36:10;101551.56;;;3.49;85.30
74329;BME280;62749;51.982;5.916;2022-12-07T06:38:42;101545.47;;;3.50;85.54
74329;BME280;62749;51.982;5.916;2022-12-07T06:41:11;101552.44;;;3.57;85.44
74329;BME280;62749;51.982;5.916;2022-12-07T06:43:41;101551.56;;;3.46;85.43
74329;BME280;62749;51.982;5.916;2022-12-07T06:46:10;101553.34;;;3.41;85.89
74329;BME280;62749;51.982;5.916;2022-12-07T06:48:40;101548.09;;;3.42;85.77
74329;BME280;62749;51.982;5.916;2022-12-07T06:51:10;101555.06;;;3.40;85.47
74329;BME280;62749;51.982;5.916;2022-12-07T06:53:42;101555.94;;;3.50;85.57
74329;BME280;62749;51.982;5.916;2022-12-07T06:56:11;101560.28;;;3.49;85.60
74329;BME280;62749;51.982;5.916;2022-12-07T06:58:41;101555.94;;;3.53;85.32
74329;BME280;62749;51.982;5.916;2022-12-07T07:01:11;101555.94;;;3.50;85.53
74329;BME280;62749;51.982;5.916;2022-12-07T07:03:42;101553.31;;;3.58;85.30
74329;BME280;62749;51.982;5.916;2022-12-07T07:06:12;101551.56;;;3.63;84.79
74329;BME280;62749;51.982;5.916;2022-12-07T07:08:49;101556.78;;;3.71;84.48
74329;BME280;62749;51.982;5.916;2022-12-07T07:11:19;101552.41;;;3.82;83.96
74329;BME280;62749;51.982;5.916;2022-12-07T07:13:48;101557.59;;;3.94;83.12
74329;BME280;62749;51.982;5.916;2022-12-07T07:16:18;101546.28;;;3.95;82.80
74329;BME280;62749;51.982;5.916;2022-12-07T07:18:47;101557.63;;;3.96;83.08
74329;BME280;62749;51.982;5.916;2022-12-07T07:21:16;101559.34;;;3.88;83.52
74329;BME280;62749;51.982;5.916;2022-12-07T07:23:46;101559.38;;;3.89;83.72
74329;BME280;62749;51.982;5.916;2022-12-07T07:26:21;101561.97;;;3.91;83.33
74329;BME280;62749;51.982;5.916;2022-12-07T07:28:50;101562.88;;;3.88;83.57
74329;BME280;62749;51.982;5.916;2022-12-07T07:31:19;101561.13;;;3.82;83.53
74329;BME280;62749;51.982;5.916;2022-12-07T07:33:49;101555.03;;;3.77;84.08
74329;BME280;62749;51.982;5.916;2022-12-07T07:36:18;101561.13;;;3.90;83.82
74329;BME280;62749;51.982;5.916;2022-12-07T07:38:48;101564.59;;;3.91;82.79
74329;BME280;62749;51.982;5.916;2022-12-07T07:41:17;101563.75;;;3.79;83.41
74329;BME280;62749;51.982;5.916;2022-12-07T07:43:49;101566.34;;;3.72;83.47
74329;BME280;62749;51.982;5.916;2022-12-07T07:46:18;101562.88;;;3.68;83.77
74329;BME280;62749;51.982;5.916;2022-12-07T07:48:47;101569.88;;;3.64;83.96
74329;BME280;62749;51.982;5.916;2022-12-07T07:51:24;101565.50;;;3.57;84.36
74329;BME280;62749;51.982;5.916;2022-12-07T07:53:53;101566.38;;;3.62;84.49
74329;BME280;62749;51.982;5.916;2022-12-07T07:56:23;101557.66;;;3.62;83.84
74329;BME280;62749;51.982;5.916;2022-12-07T07:58:55;101565.50;;;3.56;84.13
74329;BME280;62749;51.982;5.916;2022-12-07T08:01:24;101561.16;;;3.50;84.41
74329;BME280;62749;51.982;5.916;2022-12-07T08:03:54;101558.53;;;3.56;84.42
74329;BME280;62749;51.982;5.916;2022-12-07T08:06:23;101562.88;;;3.60;84.21
74329;BME280;62749;51.982;5.916;2022-12-07T08:08:52;101567.25;;;3.66;83.83
74329;BME280;62749;51.982;5.916;2022-12-07T08:11:24;101562.91;;;3.66;83.88
74329;BME280;62749;51.982;5.916;2022-12-07T08:13:56;101572.47;;;3.66;83.77
74329;BME280;62749;51.982;5.916;2022-12-07T08:16:25;101579.41;;;3.68;83.60
74329;BME280;62749;51.982;5.916;2022-12-07T08:18:55;101569.88;;;3.64;84.10
74329;BME280;62749;51.982;5.916;2022-12-07T08:21:24;101578.56;;;3.71;84.22
74329;BME280;62749;51.982;5.916;2022-12-07T08:23:54;101582.03;;;3.84;83.44
74329;BME280;62749;51.982;5.916;2022-12-07T08:26:23;101583.78;;;3.91;83.21
74329;BME280;62749;51.982;5.916;2022-12-07T08:28:52;101586.41;;;3.91;82.97
74329;BME280;62749;51.982;5.916;2022-12-07T08:31:24;101597.72;;;3.93;83.51
74329;BME280;62749;51.982;5.916;2022-12-07T08:33:55;101604.69;;;3.91;84.04
74329;BME280;62749;51.982;5.916;2022-12-07T08:36:24;101591.59;;;3.93;84.36
74329;BME280;62749;51.982;5.916;2022-12-07T08:38:54;101594.22;;;4.01;84.92
74329;BME280;62749;51.982;5.916;2022-12-07T08:41:23;101589.84;;;4.10;84.68
74329;BME280;62749;51.982;5.916;2022-12-07T08:43:52;101577.59;;;4.19;84.98
74329;BME280;62749;51.982;5.916;2022-12-07T08:46:29;101582.81;;;4.29;84.89
74329;BME280;62749;51.982;5.916;2022-12-07T08:49:06;101584.53;;;4.32;84.25
74329;BME280;62749;51.982;5.916;2022-12-07T08:51:39;101568.84;;;4.29;84.56
74329;BME280;62749;51.982;5.916;2022-12-07T08:54:11;101579.31;;;4.30;85.07
74329;BME280;62749;51.982;5.916;2022-12-07T08:56:44;101577.56;;;4.28;85.37
74329;BME280;62749;51.982;5.916;2022-12-07T08:59:17;101583.66;;;4.35;85.17
74329;BME280;62749;51.982;5.916;2022-12-07T09:01:50;101580.16;;;4.36;85.31
74329;BME280;62749;51.982;5.916;2022-12-07T09:04:20;101581.03;;;4.44;84.72
74329;BME280;62749;51.982;5.916;2022-12-07T09:06:49;101582.75;;;4.50;85.10
74329;BME280;62749;51.982;5.916;2022-12-07T09:09:19;101581.81;;;4.58;85.29
74329;BME280;62749;51.982;5.916;2022-12-07T09:11:55;101575.63;;;4.72;84.59
74329;BME280;62749;51.982;5.916;2022-12-07T09:14:25;101579.13;;;4.75;84.81
74329;BME280;62749;51.982;5.916;2022-12-07T09:17:05;101570.38;;;4.75;83.10
74329;BME280;62749;51.982;5.916;2022-12-07T09:19:34;101588.78;;;4.66;82.81
74329;BME280;62749;51.982;5.916;2022-12-07T09:22:04;101587.88;;;4.70;82.19
74329;BME280;62749;51.982;5.916;2022-12-07T09:24:34;101582.66;;;4.70;82.64
74329;BME280;62749;51.982;5.916;2022-12-07T09:27:04;101587.88;;;4.70;82.59
74329;BME280;62749;51.982;5.916;2022-12-07T09:29:33;101586.09;;;4.75;83.08
74329;BME280;62749;51.982;5.916;2022-12-07T09:32:05;101572.19;;;4.70;82.99
74329;BME280;62749;51.982;5.916;2022-12-07T09:34:34;101588.66;;;4.89;82.84
74329;BME280;62749;51.982;5.916;2022-12-07T09:37:04;101592.91;;;5.05;81.86
74329;BME280;62749;51.982;5.916;2022-12-07T09:39:33;101586.78;;;5.06;83.07
74329;BME280;62749;51.982;5.916;2022-12-07T09:42:04;101583.25;;;5.12;82.64
74329;BME280;62749;51.982;5.916;2022-12-07T09:44:35;101577.97;;;5.21;83.43
74329;BME280;62749;51.982;5.916;2022-12-07T09:47:10;101583.06;;;5.42;82.41
74329;BME280;62749;51.982;5.916;2022-12-07T09:49:39;101582.06;;;5.57;81.79
74329;BME280;62749;51.982;5.916;2022-12-07T09:52:20;101580.19;;;5.71;81.23
74329;BME280;62749;51.982;5.916;2022-12-07T09:54:51;101567.06;;;5.73;81.52
74329;BME280;62749;51.982;5.916;2022-12-07T09:57:28;101566.13;;;5.81;80.83
74329;BME280;62749;51.982;5.916;2022-12-07T10:00:03;101568.66;;;5.88;80.36
74329;BME280;62749;51.982;5.916;2022-12-07T10:02:40;101572.13;;;5.90;78.50
74329;BME280;62749;51.982;5.916;2022-12-07T10:05:14;101565.22;;;5.82;78.98
74329;BME280;62749;51.982;5.916;2022-12-07T10:07:45;101565.22;;;5.82;79.34
74329;BME280;62749;51.982;5.916;2022-12-07T10:10:18;101565.22;;;5.84;79.30
74329;BME280;62749;51.982;5.916;2022-12-07T10:12:56;101555.59;;;5.84;79.01
74329;BME280;62749;51.982;5.916;2022-12-07T10:15:45;101561.66;;;5.91;79.62
74329;BME280;62749;51.982;5.916;2022-12-07T10:18:27;101564.34;;;5.82;78.07
74329;BME280;62749;51.982;5.916;2022-12-07T10:21:15;101555.69;;;5.77;78.25
74329;BME280;62749;51.982;5.916;2022-12-07T10:24:00;101557.19;;;6.03;78.70
74329;BME280;62749;51.982;5.916;2022-12-07T10:26:32;101554.34;;;6.23;77.67
74329;BME280;62749;51.982;5.916;2022-12-07T10:29:14;101548.16;;;6.94;74.81
74329;BME280;62749;51.982;5.916;2022-12-07T10:31:50;101547.84;;;7.14;73.59
74329;BME280;62749;51.982;5.916;2022-12-07T10:34:25;101529.50;;;6.52;75.50
74329;BME280;62749;51.982;5.916;2022-12-07T10:37:14;101541.06;;;6.34;76.58
74329;BME280;62749;51.982;5.916;2022-12-07T10:39:46;101533.50;;;6.10;76.82
74329;BME280;62749;51.982;5.916;2022-12-07T10:42:18;101528.34;;;6.01;77.95
74329;BME280;62749;51.982;5.916;2022-12-07T10:44:49;101523.88;;;6.08;77.11
74329;BME280;62749;51.982;5.916;2022-12-07T10:47:33;101528.34;;;6.03;76.37
74329;BME280;62749;51.982;5.916;2022-12-07T10:53:21;101529.84;;;6.24;77.09
74329;BME280;62749;51.982;5.916;2022-12-07T10:56:17;101511.53;;;6.19;78.73
74329;BME280;62749;51.982;5.916;2022-12-07T10:59:04;101521.78;;;6.38;78.42
74329;BME280;62749;51.982;5.916;2022-12-07T11:01:45;101525.22;;;6.41;76.47
74329;BME280;62749;51.982;5.916;2022-12-07T11:04:26;101514.00;;;6.30;76.80
74329;BME280;62749;51.982;5.916;2022-12-07T11:07:06;101520.16;;;6.29;76.72
74329;BME280;62749;51.982;5.916;2022-12-07T11:10:00;101514.03;;;6.27;76.37
74329;BME280;62749;51.982;5.916;2022-12-07T11:12:44;101505.28;;;6.29;76.24
74329;BME280;62749;51.982;5.916;2022-12-07T11:15:21;101514.03;;;6.28;74.63
74329;BME280;62749;51.982;5.916;2022-12-07T11:18:00;101513.19;;;6.26;74.68
74329;BME280;62749;51.982;5.916;2022-12-07T11:20:44;101503.59;;;6.24;75.06
74329;BME280;62749;51.982;5.916;2022-12-07T11:23:30;101501.84;;;6.26;75.76
74329;BME280;62749;51.982;5.916;2022-12-07T11:26:15;101499.22;;;6.24;75.58
74329;BME280;62749;51.982;5.916;2022-12-07T11:29:13;101485.16;;;6.32;75.22
74329;BME280;62749;51.982;5.916;2022-12-07T11:31:59;101487.75;;;6.30;75.33
74329;BME280;62749;51.982;5.916;2022-12-07T11:34:42;101482.53;;;6.32;75.25
74329;BME280;62749;51.982;5.916;2022-12-07T11:37:20;101473.72;;;6.34;76.25
74329;BME280;62749;51.982;5.916;2022-12-07T11:39:54;101485.88;;;6.43;75.25
74329;BME280;62749;51.982;5.916;2022-12-07T11:42:36;101484.09;;;6.43;76.32
74329;BME280;62749;51.982;5.916;2022-12-07T11:45:15;101481.28;;;6.56;75.17
74329;BME280;62749;51.982;5.916;2022-12-07T11:47:51;101477.81;;;6.54;74.86
74329;BME280;62749;51.982;5.916;2022-12-07T11:50:33;101476.16;;;6.48;74.92
74329;BME280;62749;51.982;5.916;2022-12-07T11:53:11;101477.00;;;6.50;75.89
74329;BME280;62749;51.982;5.916;2022-12-07T11:55:49;101475.91;;;6.67;75.72
74329;BME280;62749;51.982;5.916;2022-12-07T11:58:38;101464.50;;;6.68;74.88
74329;BME280;62749;51.982;5.916;2022-12-07T12:01:25;101466.25;;;6.69;75.37
74329;BME280;62749;51.982;5.916;2022-12-07T12:04:18;101466.25;;;6.67;74.83
74329;BME280;62749;51.982;5.916;2022-12-07T12:06:52;101454.91;;;6.67;75.48
74329;BME280;62749;51.982;5.916;2022-12-07T12:09:28;101456.63;;;6.66;75.80
74329;BME280;62749;51.982;5.916;2022-12-07T12:15:23;101448.88;;;6.58;75.35
74329;BME280;62749;51.982;5.916;2022-12-07T12:18:27;101448.28;;;6.39;75.90
74329;BME280;62749;51.982;5.916;2022-12-07T12:21:06;101445.53;;;6.47;75.81
74329;BME280;62749;51.982;5.916;2022-12-07T12:23:42;101449.00;;;6.49;75.17
74329;BME280;62749;51.982;5.916;2022-12-07T12:26:18;101446.25;;;6.60;74.67
74329;BME280;62749;51.982;5.916;2022-12-07T12:28:53;101441.72;;;6.68;73.96
74329;BME280;62749;51.982;5.916;2022-12-07T12:31:35;101434.84;;;6.59;74.02
74329;BME280;62749;51.982;5.916;2022-12-07T12:34:30;101439.94;;;6.70;73.64
74329;BME280;62749;51.982;5.916;2022-12-07T12:37:00;101434.69;;;6.70;74.17
74329;BME280;62749;51.982;5.916;2022-12-07T12:39:31;101441.34;;;6.95;74.47
74329;BME280;62749;51.982;5.916;2022-12-07T12:42:00;101439.31;;;7.11;72.99
74329;BME280;62749;51.982;5.916;2022-12-07T12:47:52;101428.75;;;7.14;72.39
74329;BME280;62749;51.982;5.916;2022-12-07T12:50:27;101422.38;;;7.26;73.28
74329;BME280;62749;51.982;5.916;2022-12-07T12:53:14;101423.75;;;7.48;72.79
74329;BME280;62749;51.982;5.916;2022-12-07T12:56:11;101417.78;;;7.39;72.85
74329;BME280;62749;51.982;5.916;2022-12-07T12:58:44;101410.00;;;7.32;72.17
74329;BME280;62749;51.982;5.916;2022-12-07T13:01:44;101414.19;;;7.43;72.27
74329;BME280;62749;51.982;5.916;2022-12-07T13:04:38;101405.50;;;7.41;72.24
74329;BME280;62749;51.982;5.916;2022-12-07T13:07:13;101410.09;;;7.28;72.57
74329;BME280;62749;51.982;5.916;2022-12-07T13:10:04;101397.75;;;7.31;72.45
74329;BME280;62749;51.982;5.916;2022-12-07T13:12:41;101389.69;;;7.42;72.23
74329;BME280;62749;51.982;5.916;2022-12-07T13:15:32;101398.31;;;7.49;71.47
74329;BME280;62749;51.982;5.916;2022-12-07T13:18:04;101393.34;;;7.33;71.30
74329;BME280;62749;51.982;5.916;2022-12-07T13:20:48;101392.63;;;7.25;71.80
74329;BME280;62749;51.982;5.916;2022-12-07T13:23:34;101390.03;;;7.22;72.87
74329;BME280;62749;51.982;5.916;2022-12-07T13:26:33;101387.31;;;7.27;72.72
74329;BME280;62749;51.982;5.916;2022-12-07T13:29:11;101390.09;;;7.19;73.13
74329;BME280;62749;51.982;5.916;2022-12-07T13:31:43;101384.84;;;7.19;73.20
74329;BME280;62749;51.982;5.916;2022-12-07T13:34:35;101383.06;;;7.21;73.37
74329;BME280;62749;51.982;5.916;2022-12-07T13:37:14;101370.94;;;7.14;73.78
74329;BME280;62749;51.982;5.916;2022-12-07T13:39:46;101366.50;;;7.17;73.37
74329;BME280;62749;51.982;5.916;2022-12-07T13:42:25;101360.47;;;7.11;74.56
74329;BME280;62749;51.982;5.916;2022-12-07T13:44:55;101357.94;;;7.06;73.42
74329;BME280;62749;51.982;5.916;2022-12-07T13:47:34;101357.94;;;7.04;73.52